createdAt,value
2019-03-08T00:00:11.984Z,0.00
2019-03-08T00:01:12.012Z,0.00
2019-03-08T00:02:12.043Z,0.00
2019-03-08T00:03:12.072Z,0.00
2019-03-08T00:04:12.100Z,0.00
2019-03-08T00:05:12.129Z,0.00
2019-03-08T00:06:12.160Z,0.00
2019-03-08T00:07:12.188Z,0.00
2019-03-08T00:08:12.220Z,0.00
2019-03-08T00:09:12.246Z,0.00
2019-03-08T00:10:12.274Z,0.00
2019-03-08T00:11:12.305Z,0.00
2019-03-08T00:12:12.335Z,0.00
2019-03-08T00:13:12.364Z,0.00
2019-03-08T00:14:12.393Z,0.00
2019-03-08T00:15:12.450Z,0.00
2019-03-08T00:16:12.452Z,0.00
2019-03-08T00:17:12.479Z,0.00
2019-03-08T00:18:12.510Z,0.00
2019-03-08T00:19:12.538Z,0.00
2019-03-08T00:20:12.569Z,0.00
2019-03-08T00:21:12.597Z,0.00
2019-03-08T00:22:12.628Z,0.00
2019-03-08T00:23:12.657Z,0.00
2019-03-08T00:24:12.685Z,0.00
2019-03-08T00:25:12.714Z,0.00
2019-03-08T00:26:12.743Z,0.00
2019-03-08T00:27:12.772Z,0.00
2019-03-08T00:28:12.801Z,0.00
2019-03-08T00:29:12.830Z,0.00
2019-03-08T00:30:12.859Z,0.00
2019-03-08T00:31:12.889Z,0.00
2019-03-08T00:32:12.918Z,0.00
2019-03-08T00:33:12.946Z,0.00
2019-03-08T00:34:12.975Z,0.00
2019-03-08T00:35:13.009Z,0.00
2019-03-08T00:36:13.034Z,0.00
2019-03-08T00:37:13.063Z,0.00
2019-03-08T00:38:13.092Z,0.00
2019-03-08T00:39:13.122Z,0.00
2019-03-08T00:40:13.150Z,0.00
2019-03-08T00:41:13.179Z,0.00
2019-03-08T00:42:13.208Z,0.00
2019-03-08T00:43:13.237Z,0.00
2019-03-08T00:44:13.268Z,0.00
2019-03-08T00:45:13.294Z,0.00
2019-03-08T00:46:13.325Z,0.00
2019-03-08T00:47:13.353Z,0.00
2019-03-08T00:48:13.383Z,0.00
2019-03-08T00:49:13.412Z,0.00
2019-03-08T00:50:13.442Z,0.00
2019-03-08T00:51:13.469Z,0.00
2019-03-08T00:52:13.499Z,0.00
2019-03-08T00:53:15.087Z,0.00
2019-03-08T00:54:13.557Z,0.00
2019-03-08T00:55:13.586Z,0.00
2019-03-08T00:56:13.616Z,0.00
2019-03-08T00:57:13.643Z,0.00
2019-03-08T00:58:13.672Z,0.00
2019-03-08T00:59:13.703Z,0.00
2019-03-08T01:00:13.731Z,0.00
2019-03-08T01:01:13.759Z,0.00
2019-03-08T01:02:13.788Z,0.00
2019-03-08T01:03:13.825Z,0.00
2019-03-08T01:04:13.847Z,0.00
2019-03-08T01:05:13.878Z,0.00
2019-03-08T01:06:13.905Z,0.00
2019-03-08T01:07:13.935Z,0.00
2019-03-08T01:08:13.964Z,0.00
2019-03-08T01:09:13.991Z,0.00
2019-03-08T01:10:14.019Z,0.00
2019-03-08T01:11:14.050Z,0.00
2019-03-08T01:12:14.080Z,0.00
2019-03-08T01:13:14.107Z,0.00
2019-03-08T01:14:14.136Z,0.00
2019-03-08T01:15:14.167Z,0.00
2019-03-08T01:16:14.193Z,0.00
2019-03-08T01:17:14.221Z,0.00
2019-03-08T01:18:14.249Z,0.00
2019-03-08T01:19:14.279Z,0.00
2019-03-08T01:20:14.307Z,0.00
2019-03-08T01:21:14.336Z,0.00
2019-03-08T01:22:14.367Z,0.00
2019-03-08T01:23:14.396Z,0.00
2019-03-08T01:24:14.424Z,0.00
2019-03-08T01:25:14.453Z,0.00
2019-03-08T01:26:14.481Z,0.00
2019-03-08T01:27:14.509Z,0.00
2019-03-08T01:28:14.540Z,0.00
2019-03-08T01:29:14.567Z,0.00
2019-03-08T01:30:14.597Z,0.00
2019-03-08T01:31:14.627Z,0.00
2019-03-08T01:32:14.655Z,0.00
2019-03-08T01:33:14.683Z,0.00
2019-03-08T01:34:14.711Z,0.00
2019-03-08T01:35:14.740Z,0.00
2019-03-08T01:36:14.769Z,0.00
2019-03-08T01:37:14.798Z,0.00
2019-03-08T01:38:14.826Z,0.00
2019-03-08T01:39:14.855Z,0.00
2019-03-08T01:40:14.885Z,0.00
2019-03-08T01:41:14.912Z,0.00
2019-03-08T01:42:14.943Z,0.00
2019-03-08T01:43:14.970Z,0.00
2019-03-08T01:44:15.000Z,0.00
2019-03-08T01:45:15.028Z,0.00
2019-03-08T01:46:15.056Z,0.00
2019-03-08T01:47:15.085Z,0.00
2019-03-08T01:48:15.114Z,0.00
2019-03-08T01:49:15.142Z,0.00
2019-03-08T01:50:15.173Z,0.00
2019-03-08T01:51:15.200Z,0.00
2019-03-08T01:52:15.229Z,0.00
2019-03-08T01:53:15.258Z,0.00
2019-03-08T01:54:15.286Z,0.00
2019-03-08T01:55:15.317Z,0.00
2019-03-08T01:56:15.343Z,0.00
2019-03-08T01:57:15.373Z,0.00
2019-03-08T01:58:15.402Z,0.00
2019-03-08T01:59:15.429Z,0.00
2019-03-08T02:00:15.457Z,0.00
2019-03-08T02:01:15.487Z,0.00
2019-03-08T02:02:15.515Z,0.00
2019-03-08T02:03:17.167Z,0.00
2019-03-08T02:04:15.573Z,0.00
2019-03-08T02:05:15.602Z,0.00
2019-03-08T02:06:15.629Z,0.00
2019-03-08T02:07:15.660Z,0.00
2019-03-08T02:08:15.689Z,0.00
2019-03-08T02:09:15.716Z,0.00
2019-03-08T02:10:15.744Z,0.00
2019-03-08T02:11:15.773Z,0.00
2019-03-08T02:12:15.801Z,0.00
2019-03-08T02:13:15.830Z,0.00
2019-03-08T02:14:15.861Z,0.00
2019-03-08T02:15:15.888Z,0.00
2019-03-08T02:16:15.918Z,0.00
2019-03-08T02:17:15.946Z,0.00
2019-03-08T02:18:15.976Z,0.00
2019-03-08T02:19:16.002Z,0.00
2019-03-08T02:20:16.032Z,0.00
2019-03-08T02:21:16.059Z,0.00
2019-03-08T02:22:16.087Z,0.00
2019-03-08T02:23:16.126Z,0.00
2019-03-08T02:24:16.160Z,0.00
2019-03-08T02:25:16.175Z,0.00
2019-03-08T02:26:16.202Z,0.00
2019-03-08T02:27:16.231Z,0.00
2019-03-08T02:28:16.260Z,0.00
2019-03-08T02:29:16.288Z,0.00
2019-03-08T02:30:16.316Z,0.00
2019-03-08T02:31:16.345Z,0.00
2019-03-08T02:32:16.373Z,0.00
2019-03-08T02:33:16.401Z,0.00
2019-03-08T02:34:16.431Z,0.00
2019-03-08T02:35:16.461Z,0.00
2019-03-08T02:36:16.489Z,0.00
2019-03-08T02:37:16.516Z,0.00
2019-03-08T02:38:16.544Z,0.00
2019-03-08T02:39:16.576Z,0.00
2019-03-08T02:40:16.602Z,0.00
2019-03-08T02:41:16.629Z,0.00
2019-03-08T02:42:16.658Z,0.00
2019-03-08T02:43:16.690Z,0.00
2019-03-08T02:44:16.715Z,0.00
2019-03-08T02:45:16.742Z,0.00
2019-03-08T02:46:16.771Z,0.00
2019-03-08T02:47:16.800Z,0.00
2019-03-08T02:48:16.832Z,0.00
2019-03-08T02:49:16.856Z,0.00
2019-03-08T02:50:16.885Z,0.00
2019-03-08T02:51:16.913Z,0.00
2019-03-08T02:52:16.944Z,0.00
2019-03-08T02:53:16.971Z,0.00
2019-03-08T02:54:16.998Z,0.00
2019-03-08T02:55:17.027Z,0.00
2019-03-08T02:56:17.058Z,0.00
2019-03-08T02:57:17.184Z,0.00
2019-03-08T02:58:17.112Z,0.00
2019-03-08T02:59:17.139Z,0.00
2019-03-08T03:00:17.169Z,0.00
2019-03-08T03:01:17.195Z,0.00
2019-03-08T03:02:17.223Z,0.00
2019-03-08T03:03:17.253Z,0.00
2019-03-08T03:04:17.282Z,0.00
2019-03-08T03:05:17.309Z,0.00
2019-03-08T03:06:17.339Z,0.00
2019-03-08T03:07:17.367Z,0.00
2019-03-08T03:08:17.395Z,0.00
2019-03-08T03:09:17.422Z,0.00
2019-03-08T03:10:17.455Z,0.00
2019-03-08T03:11:17.481Z,0.00
2019-03-08T03:12:17.808Z,0.00
2019-03-08T03:13:17.536Z,0.00
2019-03-08T03:14:17.563Z,0.00
2019-03-08T03:15:17.592Z,0.00
2019-03-08T03:16:17.621Z,0.00
2019-03-08T03:17:17.647Z,0.00
2019-03-08T03:18:17.676Z,0.00
2019-03-08T03:19:17.703Z,0.00
2019-03-08T03:20:17.734Z,0.00
2019-03-08T03:21:17.766Z,0.00
2019-03-08T03:22:17.790Z,0.00
2019-03-08T03:23:17.817Z,0.00
2019-03-08T03:24:17.846Z,0.00
2019-03-08T03:25:17.872Z,0.00
2019-03-08T03:26:17.951Z,0.00
2019-03-08T03:27:17.929Z,0.00
2019-03-08T03:28:17.957Z,0.00
2019-03-08T03:29:17.985Z,0.00
2019-03-08T03:30:18.015Z,0.00
2019-03-08T03:31:18.047Z,0.00
2019-03-08T03:32:18.071Z,0.00
2019-03-08T03:33:18.098Z,0.00
2019-03-08T03:34:18.128Z,0.00
2019-03-08T03:35:18.156Z,0.00
2019-03-08T03:36:18.184Z,0.00
2019-03-08T03:37:18.210Z,0.00
2019-03-08T03:38:18.239Z,0.00
2019-03-08T03:39:18.269Z,0.00
2019-03-08T03:40:18.299Z,0.00
2019-03-08T03:41:18.323Z,0.00
2019-03-08T03:42:18.350Z,0.00
2019-03-08T03:43:18.378Z,0.00
2019-03-08T03:44:18.407Z,0.00
2019-03-08T03:45:18.436Z,0.00
2019-03-08T03:46:18.461Z,0.00
2019-03-08T03:47:18.491Z,0.00
2019-03-08T03:48:18.520Z,0.00
2019-03-08T03:49:18.548Z,0.00
2019-03-08T03:50:18.928Z,0.00
2019-03-08T03:51:18.604Z,0.00
2019-03-08T03:52:18.633Z,0.00
2019-03-08T03:53:18.659Z,0.00
2019-03-08T03:54:18.690Z,0.00
2019-03-08T03:55:18.718Z,0.00
2019-03-08T03:56:18.746Z,0.00
2019-03-08T03:57:18.773Z,0.00
2019-03-08T03:58:18.800Z,0.00
2019-03-08T03:59:18.828Z,0.00
2019-03-08T04:00:18.857Z,0.00
2019-03-08T04:01:18.885Z,0.00
2019-03-08T04:02:18.913Z,0.00
2019-03-08T04:03:18.942Z,0.00
2019-03-08T04:04:18.970Z,0.00
2019-03-08T04:05:18.999Z,0.00
2019-03-08T04:06:19.028Z,0.00
2019-03-08T04:07:19.055Z,0.00
2019-03-08T04:08:19.083Z,0.00
2019-03-08T04:09:19.115Z,0.00
2019-03-08T04:10:19.146Z,0.00
2019-03-08T04:11:19.167Z,0.00
2019-03-08T04:12:19.195Z,0.00
2019-03-08T04:13:19.223Z,0.00
2019-03-08T04:14:19.251Z,0.00
2019-03-08T04:15:19.280Z,0.00
2019-03-08T04:16:19.308Z,0.00
2019-03-08T04:17:19.335Z,0.00
2019-03-08T04:18:21.819Z,0.00
2019-03-08T04:19:19.391Z,0.00
2019-03-08T04:20:19.423Z,0.00
2019-03-08T04:21:19.448Z,0.00
2019-03-08T04:22:19.478Z,0.00
2019-03-08T04:23:19.506Z,0.00
2019-03-08T04:24:19.535Z,0.00
2019-03-08T04:25:19.561Z,0.00
2019-03-08T04:26:19.589Z,0.00
2019-03-08T04:27:19.620Z,0.00
2019-03-08T04:28:19.646Z,0.00
2019-03-08T04:29:19.673Z,0.00
2019-03-08T04:30:19.705Z,0.00
2019-03-08T04:31:19.730Z,0.00
2019-03-08T04:32:19.757Z,0.00
2019-03-08T04:33:19.786Z,0.00
2019-03-08T04:34:19.813Z,0.00
2019-03-08T04:35:19.843Z,0.00
2019-03-08T04:36:19.870Z,0.00
2019-03-08T04:37:19.904Z,0.00
2019-03-08T04:38:19.927Z,0.00
2019-03-08T04:39:19.955Z,0.00
2019-03-08T04:40:19.983Z,0.00
2019-03-08T04:41:20.010Z,0.00
2019-03-08T04:42:20.039Z,0.00
2019-03-08T04:43:20.067Z,0.00
2019-03-08T04:44:20.096Z,0.00
2019-03-08T04:45:20.125Z,0.00
2019-03-08T04:46:20.151Z,0.00
2019-03-08T04:47:20.179Z,0.00
2019-03-08T04:48:20.207Z,0.00
2019-03-08T04:49:20.234Z,0.00
2019-03-08T04:50:20.268Z,0.00
2019-03-08T04:51:20.292Z,0.00
2019-03-08T04:52:20.319Z,0.00
2019-03-08T04:53:20.349Z,0.00
2019-03-08T04:54:20.374Z,0.00
2019-03-08T04:55:20.409Z,0.00
2019-03-08T04:56:20.432Z,0.00
2019-03-08T04:57:20.459Z,0.00
2019-03-08T04:58:20.489Z,0.00
2019-03-08T04:59:20.516Z,0.00
2019-03-08T05:00:20.545Z,0.00
2019-03-08T05:01:20.573Z,0.00
2019-03-08T05:02:20.600Z,0.00
2019-03-08T05:03:20.628Z,0.00
2019-03-08T05:04:20.657Z,0.00
2019-03-08T05:05:20.685Z,0.00
2019-03-08T05:06:20.712Z,0.00
2019-03-08T05:07:20.740Z,0.00
2019-03-08T05:08:20.769Z,0.00
2019-03-08T05:09:20.799Z,0.00
2019-03-08T05:10:20.826Z,0.00
2019-03-08T05:11:20.854Z,0.00
2019-03-08T05:12:20.885Z,0.00
2019-03-08T05:13:20.910Z,0.00
2019-03-08T05:14:20.940Z,0.00
2019-03-08T05:15:20.969Z,0.00
2019-03-08T05:16:20.999Z,0.00
2019-03-08T05:17:21.028Z,0.00
2019-03-08T05:18:21.055Z,0.00
2019-03-08T05:19:21.079Z,0.00
2019-03-08T05:20:21.107Z,0.00
2019-03-08T05:21:21.137Z,0.00
2019-03-08T05:22:23.154Z,0.00
2019-03-08T05:23:21.191Z,0.00
2019-03-08T05:24:21.220Z,0.00
2019-03-08T05:25:21.248Z,0.00
2019-03-08T05:26:21.278Z,0.00
2019-03-08T05:27:21.304Z,0.00
2019-03-08T05:28:21.333Z,0.00
2019-03-08T05:29:24.189Z,0.00
2019-03-08T05:30:21.389Z,0.00
2019-03-08T05:31:21.417Z,0.00
2019-03-08T05:32:21.444Z,0.00
2019-03-08T05:33:21.473Z,0.00
2019-03-08T05:34:21.501Z,4.00
2019-03-08T05:35:21.528Z,0.00
2019-03-08T05:36:21.558Z,0.00
2019-03-08T05:37:21.585Z,4.00
2019-03-08T05:38:21.613Z,4.00
2019-03-08T05:39:21.640Z,8.00
2019-03-08T05:40:21.668Z,8.00
2019-03-08T05:41:21.706Z,8.00
2019-03-08T05:42:21.770Z,8.00
2019-03-08T05:43:21.754Z,8.00
2019-03-08T05:44:21.783Z,12.00
2019-03-08T05:45:21.823Z,16.00
2019-03-08T05:46:21.837Z,20.00
2019-03-08T05:47:21.866Z,20.00
2019-03-08T05:48:21.895Z,24.00
2019-03-08T05:49:21.923Z,28.00
2019-03-08T05:50:21.951Z,24.00
2019-03-08T05:51:21.979Z,40.00
2019-03-08T05:52:22.008Z,64.00
2019-03-08T05:53:22.034Z,80.00
2019-03-08T05:54:22.063Z,84.00
2019-03-08T05:55:22.092Z,84.00
2019-03-08T05:56:22.118Z,104.00
2019-03-08T05:57:22.145Z,100.00
2019-03-08T05:58:22.176Z,112.00
2019-03-08T05:59:22.207Z,132.00
2019-03-08T06:00:31.304Z,128.00
2019-03-08T06:01:22.260Z,140.00
2019-03-08T06:02:22.287Z,196.00
2019-03-08T06:03:22.315Z,228.00
2019-03-08T06:04:22.344Z,260.00
2019-03-08T06:05:22.373Z,284.00
2019-03-08T06:06:22.399Z,312.00
2019-03-08T06:07:22.428Z,328.00
2019-03-08T06:08:22.455Z,352.00
2019-03-08T06:09:22.482Z,340.00
2019-03-08T06:10:22.511Z,324.00
2019-03-08T06:11:22.538Z,308.00
2019-03-08T06:12:22.567Z,308.00
2019-03-08T06:13:22.595Z,304.00
2019-03-08T06:14:22.621Z,288.00
2019-03-08T06:15:22.652Z,336.00
2019-03-08T06:16:22.680Z,360.00
2019-03-08T06:17:22.705Z,396.00
2019-03-08T06:18:22.734Z,564.00
2019-03-08T06:19:22.762Z,776.00
2019-03-08T06:20:22.794Z,892.00
2019-03-08T06:21:22.817Z,972.00
2019-03-08T06:22:22.846Z,1104.00
2019-03-08T06:23:22.876Z,1244.00
2019-03-08T06:24:22.903Z,1352.00
2019-03-08T06:25:22.933Z,1500.00
2019-03-08T06:26:22.958Z,1612.00
2019-03-08T06:27:22.987Z,1724.00
2019-03-08T06:28:23.013Z,1800.00
2019-03-08T06:29:23.040Z,1916.00
2019-03-08T06:30:23.070Z,1956.00
2019-03-08T06:31:23.096Z,1896.00
2019-03-08T06:32:23.126Z,1844.00
2019-03-08T06:33:23.153Z,1764.00
2019-03-08T06:34:23.180Z,1772.00
2019-03-08T06:35:23.209Z,1832.00
2019-03-08T06:36:23.238Z,1908.00
2019-03-08T06:37:23.265Z,2044.00
2019-03-08T06:38:23.293Z,2028.00
2019-03-08T06:39:23.324Z,2004.00
2019-03-08T06:40:23.351Z,1888.00
2019-03-08T06:41:23.378Z,1740.00
2019-03-08T06:42:23.407Z,1772.00
2019-03-08T06:43:23.435Z,1912.00
2019-03-08T06:44:23.463Z,2212.00
2019-03-08T06:45:23.494Z,2412.00
2019-03-08T06:46:23.521Z,2488.00
2019-03-08T06:47:23.548Z,2784.00
2019-03-08T06:48:23.576Z,3032.00
2019-03-08T06:49:23.603Z,3216.00
2019-03-08T06:50:23.631Z,3452.00
2019-03-08T06:51:23.662Z,3584.00
2019-03-08T06:52:23.690Z,3800.00
2019-03-08T06:53:23.718Z,4104.00
2019-03-08T06:54:23.754Z,4420.00
2019-03-08T06:55:23.775Z,4716.00
2019-03-08T06:56:23.806Z,4784.00
2019-03-08T06:57:23.832Z,4716.00
2019-03-08T06:58:23.859Z,4744.00
2019-03-08T06:59:23.888Z,4532.00
2019-03-08T07:00:23.916Z,3960.00
2019-03-08T07:01:23.946Z,3440.00
2019-03-08T07:02:23.973Z,3060.00
2019-03-08T07:03:24.001Z,2908.00
2019-03-08T07:04:24.030Z,3076.00
2019-03-08T07:05:24.059Z,3400.00
2019-03-08T07:06:24.089Z,3512.00
2019-03-08T07:07:24.122Z,3076.00
2019-03-08T07:08:24.147Z,3000.00
2019-03-08T07:09:24.174Z,2864.00
2019-03-08T07:10:24.203Z,2564.00
2019-03-08T07:11:24.231Z,2316.00
2019-03-08T07:12:24.262Z,2216.00
2019-03-08T07:13:24.301Z,2248.00
2019-03-08T07:14:24.319Z,2408.00
2019-03-08T07:15:24.350Z,2744.00
2019-03-08T07:16:24.377Z,2772.00
2019-03-08T07:17:24.407Z,2788.00
2019-03-08T07:18:24.434Z,2812.00
2019-03-08T07:19:24.463Z,2736.00
2019-03-08T07:20:24.495Z,2656.00
2019-03-08T07:21:24.520Z,2616.00
2019-03-08T07:22:24.551Z,2920.00
2019-03-08T07:23:27.910Z,3192.00
2019-03-08T07:24:24.605Z,3964.00
2019-03-08T07:25:24.635Z,4672.00
2019-03-08T07:26:24.663Z,4920.00
2019-03-08T07:27:24.691Z,4800.00
2019-03-08T07:28:24.721Z,4388.00
2019-03-08T07:29:24.747Z,3744.00
2019-03-08T07:30:24.777Z,3408.00
2019-03-08T07:31:24.805Z,3584.00
2019-03-08T07:32:24.835Z,3904.00
2019-03-08T07:33:24.864Z,3496.00
2019-03-08T07:34:24.892Z,3180.00
2019-03-08T07:35:24.923Z,3124.00
2019-03-08T07:36:24.987Z,3392.00
2019-03-08T07:37:24.980Z,3896.00
2019-03-08T07:38:25.006Z,4016.00
2019-03-08T07:39:25.036Z,3760.00
2019-03-08T07:40:25.066Z,3424.00
2019-03-08T07:41:25.094Z,3020.00
2019-03-08T07:42:25.122Z,2524.00
2019-03-08T07:43:25.152Z,2156.00
2019-03-08T07:44:25.182Z,2116.00
2019-03-08T07:45:27.762Z,2344.00
2019-03-08T07:46:25.243Z,2400.00
2019-03-08T07:47:25.268Z,2356.00
2019-03-08T07:48:25.347Z,2512.00
2019-03-08T07:49:25.326Z,2884.00
2019-03-08T07:50:25.354Z,2904.00
2019-03-08T07:51:25.382Z,2864.00
2019-03-08T07:52:25.412Z,2684.00
2019-03-08T07:53:25.440Z,2796.00
2019-03-08T07:54:25.470Z,3008.00
2019-03-08T07:55:25.497Z,2972.00
2019-03-08T07:56:25.527Z,3012.00
2019-03-08T07:57:25.554Z,3180.00
2019-03-08T07:58:25.583Z,3400.00
2019-03-08T07:59:25.613Z,3336.00
2019-03-08T08:00:25.641Z,3272.00
2019-03-08T08:01:25.673Z,3656.00
2019-03-08T08:02:25.698Z,4124.00
2019-03-08T08:03:25.729Z,4212.00
2019-03-08T08:04:25.756Z,3828.00
2019-03-08T08:05:25.784Z,3420.00
2019-03-08T08:06:25.814Z,3504.00
2019-03-08T08:07:25.842Z,3952.00
2019-03-08T08:08:25.872Z,4108.00
2019-03-08T08:09:25.899Z,3568.00
2019-03-08T08:10:25.929Z,3072.00
2019-03-08T08:11:25.958Z,2984.00
2019-03-08T08:12:25.986Z,3452.00
2019-03-08T08:13:26.014Z,3684.00
2019-03-08T08:14:26.043Z,3580.00
2019-03-08T08:15:26.074Z,3544.00
2019-03-08T08:16:26.101Z,3816.00
2019-03-08T08:17:26.130Z,4384.00
2019-03-08T08:18:26.159Z,4880.00
2019-03-08T08:19:26.188Z,5372.00
2019-03-08T08:20:26.218Z,5984.00
2019-03-08T08:21:26.245Z,6356.00
2019-03-08T08:22:26.273Z,5720.00
2019-03-08T08:23:34.026Z,4800.00
2019-03-08T08:24:26.334Z,4816.00
2019-03-08T08:25:26.360Z,4736.00
2019-03-08T08:26:26.391Z,4316.00
2019-03-08T08:27:26.419Z,4140.00
2019-03-08T08:28:26.449Z,3684.00
2019-03-08T08:29:34.701Z,3500.00
2019-03-08T08:30:26.506Z,4312.00
2019-03-08T08:31:26.536Z,5560.00
2019-03-08T08:32:26.567Z,6188.00
2019-03-08T08:33:26.644Z,5980.00
2019-03-08T08:34:26.623Z,4964.00
2019-03-08T08:35:26.653Z,4528.00
2019-03-08T08:36:26.681Z,4776.00
2019-03-08T08:37:26.710Z,5744.00
2019-03-08T08:38:26.739Z,7656.00
2019-03-08T08:39:26.769Z,10124.00
2019-03-08T08:40:26.800Z,14532.00
2019-03-08T08:41:26.828Z,25696.00
2019-03-08T08:42:26.858Z,25856.00
2019-03-08T08:43:26.886Z,15744.00
2019-03-08T08:44:26.916Z,18624.00
2019-03-08T08:45:26.945Z,23072.00
2019-03-08T08:46:26.976Z,49600.00
2019-03-08T08:47:27.006Z,11476.00
2019-03-08T08:48:27.036Z,19488.00
2019-03-08T08:49:27.065Z,9708.00
2019-03-08T08:50:27.096Z,8424.00
2019-03-08T08:51:27.127Z,6976.00
2019-03-08T08:52:27.161Z,7344.00
2019-03-08T08:53:27.186Z,5588.00
2019-03-08T08:54:27.219Z,5524.00
2019-03-08T08:55:27.250Z,4980.00
2019-03-08T08:56:27.280Z,5444.00
2019-03-08T08:57:27.313Z,6860.00
2019-03-08T08:58:27.346Z,8728.00
2019-03-08T08:59:27.372Z,10952.00
2019-03-08T09:00:27.402Z,13516.00
2019-03-08T09:01:27.433Z,20512.00
2019-03-08T09:02:27.463Z,17248.00
2019-03-08T09:03:27.498Z,48832.00
2019-03-08T09:04:27.526Z,14328.00
2019-03-08T09:05:27.554Z,58080.00
2019-03-08T09:06:27.585Z,36064.00
2019-03-08T09:07:27.617Z,22464.00
2019-03-08T09:08:27.648Z,7600.00
2019-03-08T09:09:27.679Z,8232.00
2019-03-08T09:10:27.712Z,9412.00
2019-03-08T09:11:27.743Z,10624.00
2019-03-08T09:12:27.776Z,11808.00
2019-03-08T09:13:27.805Z,11920.00
2019-03-08T09:14:27.839Z,11956.00
2019-03-08T09:15:27.871Z,12732.00
2019-03-08T09:16:27.903Z,13764.00
2019-03-08T09:17:27.933Z,13704.00
2019-03-08T09:18:27.966Z,12260.00
2019-03-08T09:19:27.996Z,11276.00
2019-03-08T09:20:28.033Z,12204.00
2019-03-08T09:21:28.061Z,14060.00
2019-03-08T09:22:28.091Z,17888.00
2019-03-08T09:23:28.123Z,32064.00
2019-03-08T09:24:28.154Z,50560.00
2019-03-08T09:25:28.230Z,18304.00
2019-03-08T09:26:28.223Z,40544.00
2019-03-08T09:27:28.252Z,45088.00
2019-03-08T09:28:28.335Z,44992.00
2019-03-08T09:29:28.319Z,45952.00
2019-03-08T09:31:28.386Z,43616.00
2019-03-08T09:32:28.421Z,44288.00
2019-03-08T09:33:28.476Z,16832.00
2019-03-08T09:34:28.490Z,20864.00
2019-03-08T09:35:28.527Z,46944.00
2019-03-08T09:36:28.560Z,18208.00
2019-03-08T09:37:28.598Z,30016.00
2019-03-08T09:39:29.304Z,44800.00
2019-03-08T09:42:28.783Z,14360.00
2019-03-08T09:43:28.822Z,14316.00
2019-03-08T09:44:28.863Z,21088.00
2019-03-08T09:45:29.100Z,16136.00
2019-03-08T09:46:28.935Z,35776.00
2019-03-08T09:47:28.973Z,41344.00
2019-03-08T09:48:29.011Z,15684.00
2019-03-08T09:49:29.050Z,11688.00
2019-03-08T09:50:29.110Z,10112.00
2019-03-08T09:51:29.124Z,8248.00
2019-03-08T09:52:29.163Z,7892.00
2019-03-08T09:53:29.200Z,10368.00
2019-03-08T09:54:29.237Z,12316.00
2019-03-08T09:55:29.274Z,12728.00
2019-03-08T09:56:29.310Z,12500.00
2019-03-08T09:57:29.347Z,12036.00
2019-03-08T09:58:29.383Z,11884.00
2019-03-08T09:59:29.419Z,11752.00
2019-03-08T10:00:29.456Z,12104.00
2019-03-08T10:01:29.491Z,16480.00
2019-03-08T10:02:29.526Z,16896.00
2019-03-08T10:03:29.563Z,21472.00
2019-03-08T10:04:29.601Z,23968.00
2019-03-08T10:05:29.634Z,33472.00
2019-03-08T10:06:29.668Z,11636.00
2019-03-08T10:07:29.705Z,10268.00
2019-03-08T10:08:29.745Z,9612.00
2019-03-08T10:09:29.776Z,9632.00
2019-03-08T10:10:29.810Z,49024.00
2019-03-08T10:11:29.845Z,8828.00
2019-03-08T10:12:29.881Z,9560.00
2019-03-08T10:13:29.916Z,11080.00
2019-03-08T10:14:29.948Z,15204.00
2019-03-08T10:15:29.988Z,17408.00
2019-03-08T10:16:30.019Z,38336.00
2019-03-08T10:17:30.071Z,93984.00
2019-03-08T10:18:30.089Z,92640.00
2019-03-08T10:19:30.123Z,13604.00
2019-03-08T10:20:30.159Z,12900.00
2019-03-08T10:21:30.194Z,12388.00
2019-03-08T10:22:30.231Z,12808.00
2019-03-08T10:23:30.265Z,70368.00
2019-03-08T10:24:30.300Z,14800.00
2019-03-08T10:25:30.335Z,16800.00
2019-03-08T10:26:30.374Z,19296.00
2019-03-08T10:27:37.805Z,43456.00
2019-03-08T10:28:30.442Z,11160.00
2019-03-08T10:29:30.478Z,9856.00
2019-03-08T10:30:31.966Z,8888.00
2019-03-08T10:31:30.548Z,8020.00
2019-03-08T10:32:37.047Z,8124.00
2019-03-08T10:33:30.618Z,8412.00
2019-03-08T10:34:30.652Z,10156.00
2019-03-08T10:35:30.690Z,8588.00
2019-03-08T10:36:30.722Z,7664.00
2019-03-08T10:37:30.755Z,6860.00
2019-03-08T10:38:30.812Z,6528.00
2019-03-08T10:39:31.259Z,6268.00
2019-03-08T10:40:30.858Z,6104.00
2019-03-08T10:41:30.894Z,6176.00
2019-03-08T10:42:30.941Z,6532.00
2019-03-08T10:43:30.960Z,6624.00
2019-03-08T10:44:30.994Z,6788.00
2019-03-08T10:45:31.026Z,7012.00
2019-03-08T10:46:31.063Z,6904.00
2019-03-08T10:47:31.258Z,6856.00
2019-03-08T10:48:31.127Z,6840.00
2019-03-08T10:49:31.159Z,6900.00
2019-03-08T10:50:31.423Z,6392.00
2019-03-08T10:51:31.225Z,6092.00
2019-03-08T10:52:31.259Z,6148.00
2019-03-08T10:53:31.289Z,6236.00
2019-03-08T10:54:31.321Z,7112.00
2019-03-08T10:55:31.356Z,8680.00
2019-03-08T10:56:31.414Z,10256.00
2019-03-08T10:57:31.419Z,11448.00
2019-03-08T10:58:31.450Z,15108.00
2019-03-08T10:59:31.553Z,11864.00
2019-03-08T11:00:31.516Z,11072.00
2019-03-08T11:01:31.547Z,10928.00
2019-03-08T11:02:31.580Z,10572.00
2019-03-08T11:03:31.613Z,11072.00
2019-03-08T11:04:31.645Z,12528.00
2019-03-08T11:05:31.675Z,14784.00
2019-03-08T11:06:31.710Z,17152.00
2019-03-08T11:07:31.739Z,35712.00
2019-03-08T11:08:31.771Z,84672.00
2019-03-08T11:09:31.803Z,92480.00
2019-03-08T11:10:31.842Z,29440.00
2019-03-08T11:11:31.869Z,18688.00
2019-03-08T11:12:31.925Z,18464.00
2019-03-08T11:13:31.936Z,18304.00
2019-03-08T11:14:31.970Z,22688.00
2019-03-08T11:15:32.002Z,23968.00
2019-03-08T11:16:32.038Z,26272.00
2019-03-08T11:17:32.086Z,26336.00
2019-03-08T11:18:32.103Z,23232.00
2019-03-08T11:19:32.136Z,23104.00
2019-03-08T11:20:32.171Z,23104.00
2019-03-08T11:21:32.206Z,48832.00
2019-03-08T11:22:32.242Z,24832.00
2019-03-08T11:23:32.273Z,39744.00
2019-03-08T11:24:32.309Z,31456.00
2019-03-08T11:25:35.162Z,20608.00
2019-03-08T11:26:32.376Z,18176.00
2019-03-08T11:27:32.413Z,16736.00
2019-03-08T11:28:32.447Z,16992.00
2019-03-08T11:29:32.483Z,17920.00
2019-03-08T11:30:32.518Z,20864.00
2019-03-08T11:31:32.554Z,23520.00
2019-03-08T11:32:32.588Z,28160.00
2019-03-08T11:33:32.620Z,38208.00
2019-03-08T11:34:32.656Z,32832.00
2019-03-08T11:35:32.690Z,27584.00
2019-03-08T11:36:32.724Z,26304.00
2019-03-08T11:37:32.807Z,29600.00
2019-03-08T11:38:32.794Z,25920.00
2019-03-08T11:39:32.827Z,27776.00
2019-03-08T11:40:32.865Z,29568.00
2019-03-08T11:41:32.899Z,72224.00
2019-03-08T11:42:32.933Z,76608.00
2019-03-08T11:43:32.970Z,32000.00
2019-03-08T11:45:33.041Z,43008.00
2019-03-08T11:46:33.079Z,94080.00
2019-03-08T11:47:33.112Z,32704.00
2019-03-08T11:48:33.150Z,27392.00
2019-03-08T11:49:33.188Z,73056.00
2019-03-08T11:50:33.221Z,74720.00
2019-03-08T11:51:33.588Z,30208.00
2019-03-08T11:52:33.320Z,28480.00
2019-03-08T11:53:33.355Z,28640.00
2019-03-08T11:54:40.571Z,42976.00
2019-03-08T11:55:33.839Z,28576.00
2019-03-08T11:56:35.014Z,28352.00
2019-03-08T11:57:33.483Z,29504.00
2019-03-08T11:58:33.521Z,56640.00
2019-03-08T11:59:33.558Z,102144.00
2019-03-08T12:00:33.596Z,103776.00
2019-03-08T12:01:33.634Z,38048.00
2019-03-08T12:02:37.694Z,57600.00
2019-03-08T12:03:33.711Z,29024.00
2019-03-08T12:04:33.750Z,26560.00
2019-03-08T12:05:33.787Z,26176.00
2019-03-08T12:06:34.892Z,24448.00
2019-03-08T12:07:33.867Z,23360.00
2019-03-08T12:08:33.904Z,42464.00
2019-03-08T12:09:34.165Z,101824.00
2019-03-08T12:10:33.980Z,53568.00
2019-03-08T12:11:34.021Z,64896.00
2019-03-08T12:12:34.060Z,26496.00
2019-03-08T12:13:34.099Z,34528.00
2019-03-08T12:14:34.137Z,47200.00
2019-03-08T12:15:34.177Z,59552.00
2019-03-08T12:16:34.216Z,32000.00
2019-03-08T12:17:34.256Z,44672.00
2019-03-08T12:18:34.374Z,38720.00
2019-03-08T12:19:34.332Z,26336.00
2019-03-08T12:20:34.372Z,27456.00
2019-03-08T12:21:34.412Z,115168.00
2019-03-08T12:22:34.450Z,35136.00
2019-03-08T12:23:34.488Z,137984.00
2019-03-08T12:24:34.529Z,133024.00
2019-03-08T12:25:34.566Z,124192.00
2019-03-08T12:26:34.606Z,114080.00
2019-03-08T12:27:34.646Z,108992.00
2019-03-08T12:28:34.689Z,103040.00
2019-03-08T12:29:34.727Z,22944.00
2019-03-08T12:30:34.770Z,30304.00
2019-03-08T12:31:34.809Z,118016.00
2019-03-08T12:32:34.851Z,48960.00
2019-03-08T12:33:34.894Z,22176.00
2019-03-08T12:34:34.934Z,56960.00
2019-03-08T12:35:34.974Z,22816.00
2019-03-08T12:36:35.016Z,20832.00
2019-03-08T12:37:35.058Z,20768.00